sensor_id;sensor_type;location;lat;lon;timestamp;pressure;altitude;pressure_sealevel;temperature;humidity
27613;BME280;15036;48.094;-1.690;2023-03-25T00:02:10;100487.44;;;14.42;60.34
27613;BME280;15036;48.094;-1.690;2023-03-25T00:04:36;100486.66;;;14.35;60.79
27613;BME280;15036;48.094;-1.690;2023-03-25T00:07:03;100487.50;;;14.53;60.20
27613;BME280;15036;48.094;-1.690;2023-03-25T00:09:29;100483.78;;;14.30;60.60
27613;BME280;15036;48.094;-1.690;2023-03-25T00:11:55;100494.19;;;14.21;61.25
27613;BME280;15036;48.094;-1.690;2023-03-25T00:14:20;100489.88;;;14.32;60.83
27613;BME280;15036;48.094;-1.690;2023-03-25T00:16:46;100499.91;;;14.20;61.57
27613;BME280;15036;48.094;-1.690;2023-03-25T00:19:16;100493.88;;;14.11;61.30
27613;BME280;15036;48.094;-1.690;2023-03-25T00:21:41;100506.75;;;13.92;62.42
27613;BME280;15036;48.094;-1.690;2023-03-25T00:24:10;100508.75;;;14.58;60.39
27613;BME280;15036;48.094;-1.690;2023-03-25T00:26:42;100509.78;;;14.45;60.77
27613;BME280;15036;48.094;-1.690;2023-03-25T00:29:08;100506.31;;;13.96;61.56
27613;BME280;15036;48.094;-1.690;2023-03-25T00:31:34;100520.72;;;14.09;61.68
27613;BME280;15036;48.094;-1.690;2023-03-25T00:34:00;100520.06;;;13.89;61.43
27613;BME280;15036;48.094;-1.690;2023-03-25T00:36:25;100512.63;;;13.96;61.03
27613;BME280;15036;48.094;-1.690;2023-03-25T00:38:51;100521.59;;;13.85;61.21
27613;BME280;15036;48.094;-1.690;2023-03-25T00:41:22;100528.41;;;14.01;60.31
27613;BME280;15036;48.094;-1.690;2023-03-25T00:43:56;100523.19;;;13.92;60.24
27613;BME280;15036;48.094;-1.690;2023-03-25T00:46:23;100524.31;;;14.10;59.46
27613;BME280;15036;48.094;-1.690;2023-03-25T00:48:51;100525.16;;;14.10;59.18
27613;BME280;15036;48.094;-1.690;2023-03-25T00:51:17;100526.75;;;14.00;59.14
27613;BME280;15036;48.094;-1.690;2023-03-25T00:53:55;100536.06;;;13.74;59.47
27613;BME280;15036;48.094;-1.690;2023-03-25T00:56:24;100534.31;;;14.04;58.51
27613;BME280;15036;48.094;-1.690;2023-03-25T00:58:50;100535.09;;;14.29;57.86
27613;BME280;15036;48.094;-1.690;2023-03-25T01:01:21;100539.66;;;13.74;59.05
27613;BME280;15036;48.094;-1.690;2023-03-25T01:03:48;100541.41;;;13.87;58.48
27613;BME280;15036;48.094;-1.690;2023-03-25T01:06:15;100533.47;;;13.79;58.85
27613;BME280;15036;48.094;-1.690;2023-03-25T01:08:42;100544.44;;;13.79;59.10
27613;BME280;15036;48.094;-1.690;2023-03-25T01:11:19;100554.19;;;13.50;59.76
27613;BME280;15036;48.094;-1.690;2023-03-25T01:13:45;100540.38;;;13.63;59.47
27613;BME280;15036;48.094;-1.690;2023-03-25T01:16:10;100543.34;;;13.62;59.41
27613;BME280;15036;48.094;-1.690;2023-03-25T01:18:36;100535.78;;;13.57;59.86
27613;BME280;15036;48.094;-1.690;2023-03-25T01:21:06;100539.53;;;13.38;60.40
27613;BME280;15036;48.094;-1.690;2023-03-25T01:23:31;100539.31;;;13.09;61.00
27613;BME280;15036;48.094;-1.690;2023-03-25T01:25:57;100540.84;;;13.29;61.04
27613;BME280;15036;48.094;-1.690;2023-03-25T01:28:23;100532.78;;;13.41;60.73
27613;BME280;15036;48.094;-1.690;2023-03-25T01:30:49;100536.63;;;13.58;60.15
27613;BME280;15036;48.094;-1.690;2023-03-25T01:33:14;100555.44;;;13.23;61.29
27613;BME280;15036;48.094;-1.690;2023-03-25T01:35:41;100549.16;;;13.47;60.62
27613;BME280;15036;48.094;-1.690;2023-03-25T01:38:06;100559.75;;;13.68;59.82
27613;BME280;15036;48.094;-1.690;2023-03-25T01:40:32;100541.09;;;13.77;59.54
27613;BME280;15036;48.094;-1.690;2023-03-25T01:42:58;100535.69;;;13.70;59.69
27613;BME280;15036;48.094;-1.690;2023-03-25T01:45:29;100535.50;;;13.65;60.20
27613;BME280;15036;48.094;-1.690;2023-03-25T01:48:21;100548.38;;;13.89;59.58
27613;BME280;15036;48.094;-1.690;2023-03-25T01:50:53;100536.41;;;13.59;60.65
27613;BME280;15036;48.094;-1.690;2023-03-25T01:53:19;100536.91;;;13.74;60.52
27613;BME280;15036;48.094;-1.690;2023-03-25T01:55:45;100528.59;;;14.24;59.00
27613;BME280;15036;48.094;-1.690;2023-03-25T01:58:14;100527.47;;;13.70;60.15
27613;BME280;15036;48.094;-1.690;2023-03-25T02:00:43;100543.44;;;13.98;59.82
27613;BME280;15036;48.094;-1.690;2023-03-25T02:03:10;100539.50;;;14.30;59.21
27613;BME280;15036;48.094;-1.690;2023-03-25T02:05:43;100544.88;;;14.19;59.24
27613;BME280;15036;48.094;-1.690;2023-03-25T02:08:12;100544.22;;;14.23;59.12
27613;BME280;15036;48.094;-1.690;2023-03-25T02:10:40;100551.53;;;13.86;60.35
27613;BME280;15036;48.094;-1.690;2023-03-25T02:13:09;100558.25;;;13.90;60.45
27613;BME280;15036;48.094;-1.690;2023-03-25T02:15:46;100556.94;;;13.75;61.14
27613;BME280;15036;48.094;-1.690;2023-03-25T02:18:32;100561.97;;;14.21;59.77
27613;BME280;15036;48.094;-1.690;2023-03-25T02:35:26;100550.81;;;13.73;61.57
27613;BME280;15036;48.094;-1.690;2023-03-25T02:38:48;100563.13;;;13.88;61.88
27613;BME280;15036;48.094;-1.690;2023-03-25T02:41:27;100567.63;;;13.83;62.07
27613;BME280;15036;48.094;-1.690;2023-03-25T02:44:08;100568.59;;;14.13;61.25
27613;BME280;15036;48.094;-1.690;2023-03-25T02:46:35;100569.69;;;14.12;61.45
27613;BME280;15036;48.094;-1.690;2023-03-25T02:49:19;100566.84;;;13.76;62.27
27613;BME280;15036;48.094;-1.690;2023-03-25T02:51:52;100566.44;;;13.97;62.10
27613;BME280;15036;48.094;-1.690;2023-03-25T02:54:21;100565.00;;;14.13;61.49
27613;BME280;15036;48.094;-1.690;2023-03-25T02:56:49;100567.00;;;14.06;61.80
27613;BME280;15036;48.094;-1.690;2023-03-25T02:59:22;100561.13;;;14.02;62.03
27613;BME280;15036;48.094;-1.690;2023-03-25T03:01:48;100570.94;;;13.91;62.18
27613;BME280;15036;48.094;-1.690;2023-03-25T03:04:14;100568.69;;;14.25;61.34
27613;BME280;15036;48.094;-1.690;2023-03-25T03:06:41;100559.53;;;14.13;61.47
27613;BME280;15036;48.094;-1.690;2023-03-25T03:09:11;100571.13;;;14.15;61.50
27613;BME280;15036;48.094;-1.690;2023-03-25T03:14:46;100572.03;;;14.09;61.89
27613;BME280;15036;48.094;-1.690;2023-03-25T03:30:28;100585.31;;;14.12;61.97
27613;BME280;15036;48.094;-1.690;2023-03-25T03:33:27;100585.03;;;13.95;61.99
27613;BME280;15036;48.094;-1.690;2023-03-25T03:36:09;100590.34;;;14.15;61.65
27613;BME280;15036;48.094;-1.690;2023-03-25T03:38:41;100591.25;;;14.09;61.43
27613;BME280;15036;48.094;-1.690;2023-03-25T03:41:09;100581.28;;;13.89;62.16
27613;BME280;15036;48.094;-1.690;2023-03-25T03:43:44;100587.59;;;14.15;61.40
27613;BME280;15036;48.094;-1.690;2023-03-25T03:46:18;100589.00;;;14.24;61.25
27613;BME280;15036;48.094;-1.690;2023-03-25T03:48:50;100579.78;;;14.36;60.58
27613;BME280;15036;48.094;-1.690;2023-03-25T03:54:07;100580.97;;;14.04;60.90
27613;BME280;15036;48.094;-1.690;2023-03-25T03:56:44;100582.44;;;14.25;60.62
27613;BME280;15036;48.094;-1.690;2023-03-25T03:59:23;100585.00;;;14.02;60.91
27613;BME280;15036;48.094;-1.690;2023-03-25T04:01:58;100588.53;;;14.27;60.53
27613;BME280;15036;48.094;-1.690;2023-03-25T04:04:25;100604.47;;;13.93;60.91
27613;BME280;15036;48.094;-1.690;2023-03-25T04:06:57;100606.47;;;14.05;60.83
27613;BME280;15036;48.094;-1.690;2023-03-25T04:09:46;100605.50;;;13.74;61.50
27613;BME280;15036;48.094;-1.690;2023-03-25T04:12:26;100608.22;;;13.99;60.51
27613;BME280;15036;48.094;-1.690;2023-03-25T04:14:53;100622.16;;;14.22;60.01
27613;BME280;15036;48.094;-1.690;2023-03-25T04:17:20;100625.13;;;14.21;59.87
27613;BME280;15036;48.094;-1.690;2023-03-25T04:19:45;100630.56;;;14.03;60.77
27613;BME280;15036;48.094;-1.690;2023-03-25T04:22:15;100623.25;;;13.72;60.99
27613;BME280;15036;48.094;-1.690;2023-03-25T04:24:41;100631.88;;;13.44;62.16
27613;BME280;15036;48.094;-1.690;2023-03-25T04:27:08;100644.41;;;13.89;60.62
27613;BME280;15036;48.094;-1.690;2023-03-25T04:29:34;100643.84;;;14.06;60.13
27613;BME280;15036;48.094;-1.690;2023-03-25T04:32:00;100644.97;;;14.23;59.70
27613;BME280;15036;48.094;-1.690;2023-03-25T04:34:26;100648.63;;;13.92;60.47
27613;BME280;15036;48.094;-1.690;2023-03-25T04:36:53;100642.19;;;13.80;60.79
27613;BME280;15036;48.094;-1.690;2023-03-25T04:39:19;100653.28;;;14.16;59.64
27613;BME280;15036;48.094;-1.690;2023-03-25T04:41:51;100653.50;;;13.90;60.06
27613;BME280;15036;48.094;-1.690;2023-03-25T04:44:26;100665.09;;;13.92;60.09
27613;BME280;15036;48.094;-1.690;2023-03-25T04:46:53;100657.06;;;13.90;59.90
27613;BME280;15036;48.094;-1.690;2023-03-25T04:49:21;100658.97;;;13.90;59.93
27613;BME280;15036;48.094;-1.690;2023-03-25T04:51:52;100652.25;;;13.86;59.67
27613;BME280;15036;48.094;-1.690;2023-03-25T04:54:18;100660.38;;;14.24;59.14
27613;BME280;15036;48.094;-1.690;2023-03-25T04:56:45;100654.22;;;14.04;59.36
27613;BME280;15036;48.094;-1.690;2023-03-25T04:59:16;100661.09;;;13.88;59.95
27613;BME280;15036;48.094;-1.690;2023-03-25T05:01:41;100663.47;;;14.09;59.59
27613;BME280;15036;48.094;-1.690;2023-03-25T05:04:10;100664.41;;;14.28;59.19
27613;BME280;15036;48.094;-1.690;2023-03-25T05:06:41;100665.31;;;14.15;59.18
27613;BME280;15036;48.094;-1.690;2023-03-25T05:09:13;100652.94;;;14.06;59.58
27613;BME280;15036;48.094;-1.690;2023-03-25T05:11:40;100655.59;;;14.13;59.51
27613;BME280;15036;48.094;-1.690;2023-03-25T05:14:10;100662.47;;;14.28;59.09
27613;BME280;15036;48.094;-1.690;2023-03-25T05:16:36;100669.41;;;14.06;59.47
27613;BME280;15036;48.094;-1.690;2023-03-25T05:19:02;100661.50;;;13.91;59.96
27613;BME280;15036;48.094;-1.690;2023-03-25T05:21:34;100671.59;;;13.98;59.87
27613;BME280;15036;48.094;-1.690;2023-03-25T05:24:01;100671.13;;;14.25;59.11
27613;BME280;15036;48.094;-1.690;2023-03-25T05:26:27;100675.59;;;13.95;59.72
27613;BME280;15036;48.094;-1.690;2023-03-25T05:29:10;100673.78;;;14.14;59.43
27613;BME280;15036;48.094;-1.690;2023-03-25T05:31:39;100677.66;;;14.06;59.36
27613;BME280;15036;48.094;-1.690;2023-03-25T05:34:05;100686.81;;;13.93;59.95
27613;BME280;15036;48.094;-1.690;2023-03-25T05:36:31;100690.94;;;14.03;59.68
27613;BME280;15036;48.094;-1.690;2023-03-25T05:38:56;100696.63;;;14.08;59.40
27613;BME280;15036;48.094;-1.690;2023-03-25T05:41:25;100692.97;;;13.89;59.90
27613;BME280;15036;48.094;-1.690;2023-03-25T05:43:58;100697.28;;;14.03;59.83
27613;BME280;15036;48.094;-1.690;2023-03-25T05:46:25;100702.34;;;14.06;59.95
27613;BME280;15036;48.094;-1.690;2023-03-25T05:48:52;100700.34;;;13.88;60.59
27613;BME280;15036;48.094;-1.690;2023-03-25T05:51:24;100703.44;;;13.67;60.85
27613;BME280;15036;48.094;-1.690;2023-03-25T05:53:50;100712.22;;;13.82;60.62
27613;BME280;15036;48.094;-1.690;2023-03-25T05:56:17;100713.69;;;14.16;59.53
27613;BME280;15036;48.094;-1.690;2023-03-25T05:58:48;100734.97;;;13.89;60.33
27613;BME280;15036;48.094;-1.690;2023-03-25T06:01:15;100727.75;;;13.95;60.18
27613;BME280;15036;48.094;-1.690;2023-03-25T06:03:42;100733.25;;;13.95;60.18
27613;BME280;15036;48.094;-1.690;2023-03-25T06:06:08;100734.41;;;14.12;59.84
27613;BME280;15036;48.094;-1.690;2023-03-25T06:08:40;100729.72;;;14.13;59.59
27613;BME280;15036;48.094;-1.690;2023-03-25T06:11:07;100741.34;;;14.15;59.33
27613;BME280;15036;48.094;-1.690;2023-03-25T06:13:33;100744.44;;;13.62;60.33
27613;BME280;15036;48.094;-1.690;2023-03-25T06:16:03;100745.69;;;13.98;59.81
27613;BME280;15036;48.094;-1.690;2023-03-25T06:18:30;100749.06;;;14.24;59.01
27613;BME280;15036;48.094;-1.690;2023-03-25T06:20:56;100753.28;;;14.33;58.47
27613;BME280;15036;48.094;-1.690;2023-03-25T06:23:22;100756.78;;;14.40;58.41
27613;BME280;15036;48.094;-1.690;2023-03-25T06:25:49;100744.13;;;14.39;58.47
27613;BME280;15036;48.094;-1.690;2023-03-25T06:28:16;100754.94;;;14.34;58.57
27613;BME280;15036;48.094;-1.690;2023-03-25T06:30:44;100753.22;;;14.40;58.18
27613;BME280;15036;48.094;-1.690;2023-03-25T06:33:09;100753.06;;;13.97;59.46
27613;BME280;15036;48.094;-1.690;2023-03-25T06:35:35;100760.34;;;14.16;58.78
27613;BME280;15036;48.094;-1.690;2023-03-25T06:38:00;100760.09;;;14.49;57.91
27613;BME280;15036;48.094;-1.690;2023-03-25T06:40:25;100753.75;;;14.73;57.41
27613;BME280;15036;48.094;-1.690;2023-03-25T06:42:51;100756.97;;;14.45;57.56
27613;BME280;15036;48.094;-1.690;2023-03-25T06:45:16;100760.66;;;14.33;58.17
27613;BME280;15036;48.094;-1.690;2023-03-25T06:47:42;100766.09;;;14.64;57.38
27613;BME280;15036;48.094;-1.690;2023-03-25T06:50:07;100752.75;;;14.43;57.59
27613;BME280;15036;48.094;-1.690;2023-03-25T06:52:33;100773.78;;;14.31;57.92
27613;BME280;15036;48.094;-1.690;2023-03-25T06:54:58;100764.47;;;14.56;57.14
27613;BME280;15036;48.094;-1.690;2023-03-25T06:57:24;100767.88;;;14.76;56.72
27613;BME280;15036;48.094;-1.690;2023-03-25T06:59:49;100772.06;;;14.61;56.66
27613;BME280;15036;48.094;-1.690;2023-03-25T07:02:15;100762.81;;;14.55;57.23
27613;BME280;15036;48.094;-1.690;2023-03-25T07:04:40;100768.28;;;14.98;55.89
27613;BME280;15036;48.094;-1.690;2023-03-25T07:07:07;100770.56;;;14.83;56.40
27613;BME280;15036;48.094;-1.690;2023-03-25T07:09:33;100776.34;;;14.50;56.99
27613;BME280;15036;48.094;-1.690;2023-03-25T07:12:00;100785.41;;;15.00;56.02
27613;BME280;15036;48.094;-1.690;2023-03-25T07:14:25;100780.50;;;14.84;56.21
27613;BME280;15036;48.094;-1.690;2023-03-25T07:16:51;100784.66;;;15.11;55.68
27613;BME280;15036;48.094;-1.690;2023-03-25T07:19:16;100784.06;;;15.09;55.65
27613;BME280;15036;48.094;-1.690;2023-03-25T07:21:41;100784.25;;;15.08;55.35
27613;BME280;15036;48.094;-1.690;2023-03-25T07:24:07;100792.59;;;15.19;55.16
27613;BME280;15036;48.094;-1.690;2023-03-25T07:26:32;100796.53;;;14.87;55.69
27613;BME280;15036;48.094;-1.690;2023-03-25T07:28:59;100806.56;;;15.00;55.58
27613;BME280;15036;48.094;-1.690;2023-03-25T07:31:24;100809.16;;;14.95;55.92
27613;BME280;15036;48.094;-1.690;2023-03-25T07:33:50;100808.97;;;15.32;54.80
27613;BME280;15036;48.094;-1.690;2023-03-25T07:36:16;100812.59;;;15.08;55.04
27613;BME280;15036;48.094;-1.690;2023-03-25T07:38:42;100822.06;;;15.55;53.99
27613;BME280;15036;48.094;-1.690;2023-03-25T07:41:09;100821.19;;;15.36;54.39
27613;BME280;15036;48.094;-1.690;2023-03-25T07:43:35;100820.63;;;15.10;54.81
27613;BME280;15036;48.094;-1.690;2023-03-25T07:46:01;100830.41;;;15.48;54.10
27613;BME280;15036;48.094;-1.690;2023-03-25T07:48:26;100825.06;;;15.11;54.46
27613;BME280;15036;48.094;-1.690;2023-03-25T07:50:52;100835.38;;;15.15;54.86
27613;BME280;15036;48.094;-1.690;2023-03-25T07:53:18;100836.53;;;15.50;54.07
27613;BME280;15036;48.094;-1.690;2023-03-25T07:55:45;100845.28;;;15.59;53.79
27613;BME280;15036;48.094;-1.690;2023-03-25T07:58:11;100840.19;;;15.44;54.29
27613;BME280;15036;48.094;-1.690;2023-03-25T08:00:37;100844.31;;;15.53;54.14
27613;BME280;15036;48.094;-1.690;2023-03-25T08:03:03;100856.34;;;15.34;54.82
27613;BME280;15036;48.094;-1.690;2023-03-25T08:05:28;100853.31;;;15.79;53.97
27613;BME280;15036;48.094;-1.690;2023-03-25T08:07:54;100847.47;;;15.87;53.41
27613;BME280;15036;48.094;-1.690;2023-03-25T08:10:20;100848.50;;;15.92;53.59
27613;BME280;15036;48.094;-1.690;2023-03-25T08:12:45;100860.75;;;15.60;54.10
27613;BME280;15036;48.094;-1.690;2023-03-25T08:15:12;100860.38;;;15.56;54.71
27613;BME280;15036;48.094;-1.690;2023-03-25T08:17:38;100860.88;;;15.47;54.75
27613;BME280;15036;48.094;-1.690;2023-03-25T08:20:05;100870.28;;;15.57;54.73
27613;BME280;15036;48.094;-1.690;2023-03-25T08:22:32;100863.03;;;15.45;54.90
27613;BME280;15036;48.094;-1.690;2023-03-25T08:24:58;100864.50;;;14.98;56.19
27613;BME280;15036;48.094;-1.690;2023-03-25T08:27:23;100874.75;;;15.58;55.31
27613;BME280;15036;48.094;-1.690;2023-03-25T08:29:49;100872.34;;;15.44;55.36
27613;BME280;15036;48.094;-1.690;2023-03-25T08:32:23;100884.13;;;15.87;54.61
27613;BME280;15036;48.094;-1.690;2023-03-25T08:34:48;100876.97;;;15.68;55.16
27613;BME280;15036;48.094;-1.690;2023-03-25T08:37:14;100874.19;;;15.68;55.44
27613;BME280;15036;48.094;-1.690;2023-03-25T08:39:40;100880.69;;;15.74;55.45
27613;BME280;15036;48.094;-1.690;2023-03-25T08:42:10;100883.75;;;15.84;55.37
27613;BME280;15036;48.094;-1.690;2023-03-25T08:44:35;100886.44;;;15.72;55.60
27613;BME280;15036;48.094;-1.690;2023-03-25T08:47:01;100888.03;;;15.61;55.96
27613;BME280;15036;48.094;-1.690;2023-03-25T08:49:27;100890.94;;;15.48;56.50
27613;BME280;15036;48.094;-1.690;2023-03-25T08:51:53;100884.72;;;16.07;55.41
27613;BME280;15036;48.094;-1.690;2023-03-25T08:54:18;100889.09;;;15.79;55.91
27613;BME280;15036;48.094;-1.690;2023-03-25T08:56:44;100890.16;;;15.96;55.40
27613;BME280;15036;48.094;-1.690;2023-03-25T08:59:10;100889.00;;;16.03;55.31
27613;BME280;15036;48.094;-1.690;2023-03-25T09:01:37;100892.63;;;15.86;55.51
27613;BME280;15036;48.094;-1.690;2023-03-25T09:04:02;100886.44;;;15.72;56.47
27613;BME280;15036;48.094;-1.690;2023-03-25T09:06:27;100888.78;;;15.87;55.81
27613;BME280;15036;48.094;-1.690;2023-03-25T09:08:53;100896.03;;;16.47;54.88
27613;BME280;15036;48.094;-1.690;2023-03-25T09:11:20;100893.28;;;16.17;54.99
27613;BME280;15036;48.094;-1.690;2023-03-25T09:13:45;100901.31;;;16.19;55.24
27613;BME280;15036;48.094;-1.690;2023-03-25T09:16:11;100906.63;;;15.84;55.99
27613;BME280;15036;48.094;-1.690;2023-03-25T09:18:36;100899.75;;;16.23;55.20
27613;BME280;15036;48.094;-1.690;2023-03-25T09:21:02;100903.28;;;16.30;55.03
27613;BME280;15036;48.094;-1.690;2023-03-25T09:23:28;100895.69;;;16.73;54.09
27613;BME280;15036;48.094;-1.690;2023-03-25T09:25:54;100897.75;;;16.89;53.48
27613;BME280;15036;48.094;-1.690;2023-03-25T09:28:20;100892.84;;;16.50;53.94
27613;BME280;15036;48.094;-1.690;2023-03-25T09:30:46;100905.50;;;16.69;54.01
27613;BME280;15036;48.094;-1.690;2023-03-25T09:33:11;100899.47;;;16.13;54.62
27613;BME280;15036;48.094;-1.690;2023-03-25T09:35:41;100897.28;;;16.51;54.20
27613;BME280;15036;48.094;-1.690;2023-03-25T09:38:06;100911.34;;;16.61;54.13
27613;BME280;15036;48.094;-1.690;2023-03-25T09:40:32;100908.84;;;16.71;53.89
27613;BME280;15036;48.094;-1.690;2023-03-25T09:45:44;100932.59;;;16.72;53.18
27613;BME280;15036;48.094;-1.690;2023-03-25T09:50:46;100921.91;;;16.76;53.84
27613;BME280;15036;48.094;-1.690;2023-03-25T09:55:42;100907.16;;;16.70;52.99
27613;BME280;15036;48.094;-1.690;2023-03-25T10:00:59;100929.69;;;16.67;53.46
27613;BME280;15036;48.094;-1.690;2023-03-25T10:06:15;100936.41;;;17.12;52.43
27613;BME280;15036;48.094;-1.690;2023-03-25T10:14:14;100939.94;;;16.90;52.86
27613;BME280;15036;48.094;-1.690;2023-03-25T10:19:45;100936.72;;;17.80;50.53
27613;BME280;15036;48.094;-1.690;2023-03-25T10:22:34;100945.44;;;17.43;51.09
27613;BME280;15036;48.094;-1.690;2023-03-25T10:25:14;100935.63;;;17.58;50.67
27613;BME280;15036;48.094;-1.690;2023-03-25T10:27:44;100934.69;;;17.53;49.56
27613;BME280;15036;48.094;-1.690;2023-03-25T10:30:15;100944.44;;;18.18;49.70
27613;BME280;15036;48.094;-1.690;2023-03-25T10:35:31;100935.97;;;17.96;49.21
27613;BME280;15036;48.094;-1.690;2023-03-25T10:38:05;100929.84;;;17.48;49.56
27613;BME280;15036;48.094;-1.690;2023-03-25T10:40:42;100930.13;;;18.21;48.91
27613;BME280;15036;48.094;-1.690;2023-03-25T10:43:28;100931.41;;;17.67;49.14
27613;BME280;15036;48.094;-1.690;2023-03-25T10:48:45;100926.94;;;17.89;48.93
27613;BME280;15036;48.094;-1.690;2023-03-25T10:51:14;100927.22;;;17.76;48.94
27613;BME280;15036;48.094;-1.690;2023-03-25T10:53:41;100938.84;;;17.90;48.78
27613;BME280;15036;48.094;-1.690;2023-03-25T10:56:14;100942.06;;;18.38;48.07
27613;BME280;15036;48.094;-1.690;2023-03-25T10:58:43;100933.41;;;18.18;48.23
27613;BME280;15036;48.094;-1.690;2023-03-25T11:01:12;100935.97;;;18.92;46.59
27613;BME280;15036;48.094;-1.690;2023-03-25T11:03:39;100940.84;;;18.85;46.78
27613;BME280;15036;48.094;-1.690;2023-03-25T11:06:07;100934.22;;;18.58;46.94
27613;BME280;15036;48.094;-1.690;2023-03-25T11:09:04;100933.41;;;18.58;47.18
27613;BME280;15036;48.094;-1.690;2023-03-25T11:11:35;100937.94;;;18.64;46.82
27613;BME280;15036;48.094;-1.690;2023-03-25T11:14:02;100941.78;;;18.63;46.01
27613;BME280;15036;48.094;-1.690;2023-03-25T11:16:33;100937.25;;;18.57;46.16
27613;BME280;15036;48.094;-1.690;2023-03-25T11:19:01;100934.53;;;18.45;45.81
27613;BME280;15036;48.094;-1.690;2023-03-25T11:21:31;100940.66;;;18.75;46.07
27613;BME280;15036;48.094;-1.690;2023-03-25T11:23:59;100928.16;;;18.73;45.49
27613;BME280;15036;48.094;-1.690;2023-03-25T11:26:34;100931.84;;;19.40;44.75
27613;BME280;15036;48.094;-1.690;2023-03-25T11:29:05;100929.47;;;19.32;44.78
27613;BME280;15036;48.094;-1.690;2023-03-25T11:31:36;100935.31;;;18.85;44.57
27613;BME280;15036;48.094;-1.690;2023-03-25T11:34:16;100929.84;;;18.46;45.25
27613;BME280;15036;48.094;-1.690;2023-03-25T11:39:29;100929.06;;;18.22;46.18
27613;BME280;15036;48.094;-1.690;2023-03-25T11:41:54;100916.69;;;18.53;45.21
27613;BME280;15036;48.094;-1.690;2023-03-25T11:46:53;100914.00;;;18.86;45.26
27613;BME280;15036;48.094;-1.690;2023-03-25T11:49:21;100916.94;;;18.79;44.89
27613;BME280;15036;48.094;-1.690;2023-03-25T11:51:49;100919.13;;;18.49;45.25
27613;BME280;15036;48.094;-1.690;2023-03-25T11:54:16;100912.28;;;18.52;45.39
27613;BME280;15036;48.094;-1.690;2023-03-25T11:56:43;100911.19;;;18.41;44.82
27613;BME280;15036;48.094;-1.690;2023-03-25T11:59:27;100907.28;;;18.82;45.01
27613;BME280;15036;48.094;-1.690;2023-03-25T12:02:25;100900.81;;;18.60;44.35
27613;BME280;15036;48.094;-1.690;2023-03-25T12:05:10;100898.84;;;18.88;44.67
27613;BME280;15036;48.094;-1.690;2023-03-25T12:07:44;100898.16;;;18.81;44.82
27613;BME280;15036;48.094;-1.690;2023-03-25T12:10:25;100909.06;;;18.32;46.31
27613;BME280;15036;48.094;-1.690;2023-03-25T12:13:11;100900.63;;;18.38;46.69
27613;BME280;15036;48.094;-1.690;2023-03-25T12:21:42;100907.28;;;18.65;47.96
27613;BME280;15036;48.094;-1.690;2023-03-25T12:24:31;100892.53;;;18.60;47.75
27613;BME280;15036;48.094;-1.690;2023-03-25T12:33:23;100894.72;;;18.18;49.20
27613;BME280;15036;48.094;-1.690;2023-03-25T12:41:03;100878.81;;;17.85;49.66
27613;BME280;15036;48.094;-1.690;2023-03-25T12:46:12;100869.06;;;18.34;48.32
27613;BME280;15036;48.094;-1.690;2023-03-25T12:48:55;100864.94;;;18.65;47.94
27613;BME280;15036;48.094;-1.690;2023-03-25T12:52:10;100870.34;;;19.04;47.20
27613;BME280;15036;48.094;-1.690;2023-03-25T13:03:38;100860.44;;;19.25;46.96
27613;BME280;15036;48.094;-1.690;2023-03-25T13:09:16;100841.56;;;20.20;45.12
27613;BME280;15036;48.094;-1.690;2023-03-25T13:11:53;100835.47;;;20.02;45.12
27613;BME280;15036;48.094;-1.690;2023-03-25T13:14:26;100827.13;;;20.45;44.92
27613;BME280;15036;48.094;-1.690;2023-03-25T13:16:57;100826.59;;;20.48;44.38
27613;BME280;15036;48.094;-1.690;2023-03-25T13:19:29;100823.31;;;21.14;43.48
27613;BME280;15036;48.094;-1.690;2023-03-25T13:21:59;100813.41;;;20.92;43.21
27613;BME280;15036;48.094;-1.690;2023-03-25T13:24:35;100801.00;;;20.41;43.41
27613;BME280;15036;48.094;-1.690;2023-03-25T13:27:03;100803.28;;;21.07;43.19
27613;BME280;15036;48.094;-1.690;2023-03-25T13:29:43;100795.97;;;21.38;42.50
27613;BME280;15036;48.094;-1.690;2023-03-25T13:32:24;100776.84;;;21.46;41.06
27613;BME280;15036;48.094;-1.690;2023-03-25T13:34:55;100774.88;;;22.04;39.55
27613;BME280;15036;48.094;-1.690;2023-03-25T13:37:31;100771.34;;;22.33;38.36
27613;BME280;15036;48.094;-1.690;2023-03-25T13:40:26;100773.59;;;21.13;37.38
27613;BME280;15036;48.094;-1.690;2023-03-25T13:45:22;100768.16;;;21.85;38.44
27613;BME280;15036;48.094;-1.690;2023-03-25T13:50:26;100747.94;;;22.04;37.00
27613;BME280;15036;48.094;-1.690;2023-03-25T14:04:42;100744.06;;;23.06;35.73
27613;BME280;15036;48.094;-1.690;2023-03-25T14:10:16;100741.63;;;23.73;34.05
27613;BME280;15036;48.094;-1.690;2023-03-25T14:12:50;100748.59;;;23.81;33.29
27613;BME280;15036;48.094;-1.690;2023-03-25T14:15:21;100749.91;;;23.14;33.96
27613;BME280;15036;48.094;-1.690;2023-03-25T14:17:48;100752.44;;;22.86;34.14
27613;BME280;15036;48.094;-1.690;2023-03-25T14:20:24;100767.69;;;22.18;35.37
27613;BME280;15036;48.094;-1.690;2023-03-25T14:22:58;100757.22;;;21.73;35.74
27613;BME280;15036;48.094;-1.690;2023-03-25T14:25:37;100754.41;;;21.06;36.86
27613;BME280;15036;48.094;-1.690;2023-03-25T14:28:05;100757.91;;;20.92;36.95
27613;BME280;15036;48.094;-1.690;2023-03-25T14:30:33;100747.72;;;20.70;37.00
27613;BME280;15036;48.094;-1.690;2023-03-25T14:32:59;100758.75;;;20.97;36.89
27613;BME280;15036;48.094;-1.690;2023-03-25T14:43:22;100754.19;;;20.81;37.42
27613;BME280;15036;48.094;-1.690;2023-03-25T14:48:50;100760.56;;;20.18;38.57
27613;BME280;15036;48.094;-1.690;2023-03-25T14:56:36;100753.69;;;19.99;40.20
27613;BME280;15036;48.094;-1.690;2023-03-25T14:59:13;100746.59;;;20.66;38.82
27613;BME280;15036;48.094;-1.690;2023-03-25T15:01:41;100720.22;;;20.06;38.83
27613;BME280;15036;48.094;-1.690;2023-03-25T15:06:40;100729.13;;;20.34;37.31
27613;BME280;15036;48.094;-1.690;2023-03-25T15:09:09;100718.16;;;20.49;37.37
27613;BME280;15036;48.094;-1.690;2023-03-25T15:11:39;100719.81;;;19.92;38.85